< < Back
Terminal Aerodrome Forecast


Current Version              Previous Versions:   1  2  3  4  5  6  7  8  9  

Terminal Aerodrome Forecast

914
FTUS44 KOHX 291700 RRA
TAFBNA
TAF
KBNA 291742Z 2918/3018 18015G25KT P6SM SCT250
     FM292100 19015G25KT P6SM BKN050 BKN250
     FM300300 22007KT 6SM -SHRA SCT025 BKN050
      TEMPO 3008/3012 4SM -SHRA BR BKN025 OVC050
     FM301400 32006KT P6SM SKC=



Latest METAR

833
SAUS70 KWBC 300100 RRE
MTRBNA
METAR KBNA 300053Z 19014KT 10SM FEW070 13/02 A3005 RMK AO2 SLP177
T01330022


USA.gov is the U.S. government's official web portal to all federal, state and local government web resources and services.